Time;durP1;ratioP1;P1;durP2;ratioP2;P2;SDS_P1;SDS_P2;PMS_P1;PMS_P2;Temp;Humidity;BMP_temperature;BMP_pressure;BME280_temperature;BME280_humidity;BME280_pressure;Samples;Min_cycle;Max_cycle;Signal;HPM_P1;HPM_P2
2021/12/14 00:00:17;;;;;;;18.52;15.45;;;8.10;99.90;;;;;;4937817;29;20463;-86
2021/12/14 00:02:45;;;;;;;19.77;14.38;;;8.10;99.90;;;;;;4937630;29;20133;-86
2021/12/14 00:05:13;;;;;;;18.30;14.63;;;8.20;99.90;;;;;;4951968;29;20495;-86
2021/12/14 00:07:40;;;;;;;18.27;14.85;;;8.10;99.90;;;;;;4969800;28;20055;-86
2021/12/14 00:10:29;;;;;;;18.08;14.57;;;8.10;99.90;;;;;;4969116;28;20039;-86
2021/12/14 00:13:05;;;;;;;19.08;14.75;;;8.10;99.90;;;;;;4953628;29;20035;-86
2021/12/14 00:15:31;;;;;;;20.42;14.90;;;8.10;99.90;;;;;;4953482;29;20044;-86
2021/12/14 00:18:03;;;;;;;19.25;14.35;;;8.10;99.90;;;;;;4937525;29;20046;-86
2021/12/14 00:20:43;;;;;;;18.23;14.47;;;8.10;99.90;;;;;;4969469;28;20039;-86
2021/12/14 00:25:43;;;;;;;20.23;15.50;;;8.10;99.90;;;;;;4953077;29;20121;-86
2021/12/14 00:28:15;;;;;;;17.67;14.27;;;8.00;99.90;;;;;;4969707;28;20046;-86
2021/12/14 00:30:46;;;;;;;19.35;14.25;;;8.00;99.90;;;;;;4953488;29;20446;-86
2021/12/14 00:33:15;;;;;;;19.33;15.75;;;8.10;99.90;;;;;;4969437;28;20102;-86
2021/12/14 00:35:42;;;;;;;19.75;15.75;;;8.10;99.90;;;;;;4969104;28;20066;-86
2021/12/14 00:38:10;;;;;;;19.08;15.05;;;8.00;99.90;;;;;;4939930;29;20436;-86
2021/12/14 00:40:41;;;;;;;19.95;15.38;;;8.00;99.90;;;;;;4972344;28;20035;-86
2021/12/14 00:43:08;;;;;;;21.05;15.68;;;8.10;99.90;;;;;;4973339;28;20808;-86
2021/12/14 00:45:37;;;;;;;19.40;15.23;;;8.10;99.90;;;;;;4941059;29;20406;-86
2021/12/14 00:48:04;;;;;;;21.15;16.70;;;8.10;99.90;;;;;;4973000;28;20054;-86
2021/12/14 00:50:32;;;;;;;20.27;15.65;;;8.10;99.90;;;;;;4972945;28;20051;-86
2021/12/14 00:52:59;;;;;;;21.38;16.10;;;8.10;99.90;;;;;;4956911;29;20046;-86
2021/12/14 00:55:30;;;;;;;20.90;15.95;;;8.10;99.90;;;;;;4939906;29;20161;-86
2021/12/14 00:57:57;;;;;;;21.90;16.85;;;8.10;99.90;;;;;;4956901;29;20047;-86
2021/12/14 01:00:27;;;;;;;22.23;16.55;;;8.10;99.90;;;;;;4972962;28;20820;-86
2021/12/14 01:02:53;;;;;;;23.67;17.45;;;8.10;99.90;;;;;;4972902;28;20046;-86
2021/12/14 01:05:26;;;;;;;24.25;17.25;;;8.10;99.90;;;;;;4956453;29;20047;-86
2021/12/14 01:07:52;;;;;;;22.10;16.92;;;8.10;99.90;;;;;;4972660;28;20118;-86
2021/12/14 01:10:27;;;;;;;22.23;16.70;;;8.10;99.90;;;;;;4955800;28;20035;-86
2021/12/14 01:12:58;;;;;;;22.10;17.55;;;8.10;99.90;;;;;;4972631;28;20043;-86
2021/12/14 01:15:50;;;;;;;23.97;18.17;;;8.10;99.90;;;;;;4941114;29;20047;-86
2021/12/14 01:18:44;;;;;;;24.10;18.50;;;8.10;99.90;;;;;;4972693;28;20074;-86
2021/12/14 01:24:02;;;;;;;24.27;19.00;;;8.10;99.90;;;;;;4956587;29;20126;-86
2021/12/14 01:26:31;;;;;;;23.02;18.42;;;8.10;99.90;;;;;;4971732;28;20054;-86
2021/12/14 01:28:58;;;;;;;24.70;19.35;;;8.10;99.90;;;;;;4956553;28;20129;-86
2021/12/14 01:31:33;;;;;;;26.67;20.55;;;8.10;99.90;;;;;;4972175;28;20439;-86
2021/12/14 01:34:08;;;;;;;24.73;19.58;;;8.00;99.90;;;;;;4957574;28;20522;-86
2021/12/14 01:36:42;;;;;;;27.23;20.58;;;8.00;99.90;;;;;;4972004;28;20040;-86
2021/12/14 01:42:03;;;;;;;25.00;19.50;;;8.00;99.90;;;;;;4955185;29;20050;-86
2021/12/14 01:44:33;;;;;;;25.77;19.88;;;8.00;99.90;;;;;;4972390;28;20427;-86
2021/12/14 01:47:06;;;;;;;26.40;19.95;;;8.00;99.90;;;;;;4971688;28;20036;-86
2021/12/14 01:49:33;;;;;;;25.67;20.05;;;8.00;99.90;;;;;;4971456;28;20129;-86
2021/12/14 01:52:04;;;;;;;25.83;19.23;;;8.00;99.90;;;;;;4955697;29;20098;-86
2021/12/14 01:54:35;;;;;;;27.02;20.15;;;8.00;99.90;;;;;;4956129;29;20054;-86
2021/12/14 01:57:07;;;;;;;26.67;19.63;;;8.00;99.90;;;;;;4970920;28;20098;-86
2021/12/14 01:59:37;;;;;;;23.88;19.13;;;8.00;99.90;;;;;;4972163;28;20542;-86
2021/12/14 02:02:20;;;;;;;26.15;19.65;;;8.00;99.90;;;;;;4956622;28;20126;-86
2021/12/14 02:04:50;;;;;;;24.25;18.95;;;8.00;99.90;;;;;;4971717;28;20098;-86
2021/12/14 02:07:18;;;;;;;23.05;18.75;;;8.00;99.90;;;;;;4955344;29;20051;-86
2021/12/14 02:09:49;;;;;;;25.10;19.17;;;8.00;99.90;;;;;;4971933;28;20503;-86
2021/12/14 02:12:18;;;;;;;26.13;19.20;;;8.00;99.90;;;;;;4970954;28;20043;-86
2021/12/14 02:14:46;;;;;;;25.67;19.75;;;8.00;99.90;;;;;;4971482;28;20043;-86
2021/12/14 02:17:16;;;;;;;25.15;19.33;;;8.00;99.90;;;;;;4939362;29;20455;-86
2021/12/14 02:19:42;;;;;;;25.98;20.00;;;8.00;99.90;;;;;;4971478;28;20130;-86
2021/12/14 02:22:09;;;;;;;25.42;20.15;;;8.00;99.90;;;;;;4939336;28;20130;-86
2021/12/14 02:24:37;;;;;;;27.45;20.55;;;8.00;99.90;;;;;;4971296;28;20035;-86
2021/12/14 02:27:04;;;;;;;26.38;20.80;;;8.00;99.90;;;;;;4938562;29;20049;-86
2021/12/14 02:29:34;;;;;;;27.73;20.85;;;8.00;99.90;;;;;;4971358;28;20046;-86
2021/12/14 02:32:10;;;;;;;24.95;20.40;;;8.00;99.90;;;;;;4971103;28;20051;-86
2021/12/14 02:34:43;;;;;;;28.98;20.42;;;7.90;99.90;;;;;;4971148;28;20047;-86
2021/12/14 02:37:09;;;;;;;27.05;20.77;;;8.00;99.90;;;;;;4970837;28;20039;-86
2021/12/14 02:40:20;;;;;;;26.20;19.83;;;8.00;99.90;;;;;;4938839;29;20035;-86
2021/12/14 02:42:25;;;;;;;27.77;21.17;;;8.00;99.90;;;;;;4949801;28;20043;-86
2021/12/14 02:44:54;;;;;;;28.95;21.80;;;8.00;99.90;;;;;;4971003;28;20043;-86
2021/12/14 02:47:22;;;;;;;27.98;22.08;;;8.10;99.90;;;;;;4970841;28;20182;-86
2021/12/14 02:49:49;;;;;;;30.58;22.63;;;8.00;99.90;;;;;;4970952;28;20043;-86
2021/12/14 02:52:34;;;;;;;33.30;23.30;;;8.00;99.90;;;;;;4939198;29;20454;-86
2021/12/14 02:55:06;;;;;;;31.13;22.33;;;8.00;99.90;;;;;;4970806;28;20047;-86
2021/12/14 02:57:34;;;;;;;;;;;8.00;99.90;;;;;;4971079;28;20050;-86
2021/12/14 03:00:00;;;;;;;30.42;21.92;;;8.00;99.90;;;;;;4938447;29;19925;-86
2021/12/14 03:02:31;;;;;;;32.97;23.27;;;8.00;99.90;;;;;;4938689;28;20047;-86
2021/12/14 03:05:11;;;;;;;32.05;24.10;;;8.00;99.90;;;;;;4970507;28;20055;-86
2021/12/14 03:07:43;;;;;;;33.25;23.80;;;8.00;99.90;;;;;;4970697;28;20565;-86
2021/12/14 03:12:51;;;;;;;32.00;23.67;;;8.00;99.90;;;;;;4954745;29;20039;-86
2021/12/14 03:15:23;;;;;;;31.88;23.98;;;8.00;99.90;;;;;;4954113;29;20042;-86
2021/12/14 03:17:55;;;;;;;30.65;23.40;;;8.00;99.90;;;;;;4970667;28;20447;-86
2021/12/14 03:20:23;;;;;;;35.38;25.02;;;8.00;99.90;;;;;;4938043;29;20035;-86
2021/12/14 03:22:59;;;;;;;32.78;24.75;;;8.00;99.90;;;;;;4970605;28;20399;-86
2021/12/14 03:25:25;;;;;;;34.30;24.92;;;8.00;99.90;;;;;;4953294;29;20343;-86
2021/12/14 03:27:52;;;;;;;35.08;24.67;;;8.00;99.90;;;;;;4970124;28;20075;-86
2021/12/14 03:30:30;;;;;;;34.20;25.60;;;8.00;99.90;;;;;;4937933;29;20031;-86
2021/12/14 03:33:07;;;;;;;35.70;25.52;;;8.00;99.90;;;;;;4970132;28;20047;-86
2021/12/14 03:35:47;;;;;;;35.20;26.40;;;8.00;99.90;;;;;;4954171;29;20133;-86
2021/12/14 03:38:21;;;;;;;36.67;26.40;;;8.00;99.90;;;;;;4954248;29;20573;-86
2021/12/14 03:41:20;;;;;;;37.20;26.67;;;8.00;99.90;;;;;;4953156;29;20050;-86
2021/12/14 03:43:58;;;;;;;35.40;26.63;;;8.00;99.90;;;;;;4954036;29;20043;-86
2021/12/14 03:46:27;;;;;;;35.88;26.08;;;8.00;99.90;;;;;;4953986;29;20089;-86
2021/12/14 03:48:54;;;;;;;38.08;27.38;;;8.00;99.90;;;;;;4969889;28;20051;-86
2021/12/14 03:51:22;;;;;;;39.78;28.00;;;8.00;99.90;;;;;;4953539;29;20043;-86
2021/12/14 03:53:50;;;;;;;37.85;28.35;;;8.10;99.90;;;;;;4953997;28;20590;-86
2021/12/14 03:56:16;;;;;;;36.95;27.17;;;8.00;99.90;;;;;;4968888;28;20078;-86
2021/12/14 03:58:42;;;;;;;40.03;27.95;;;7.90;99.90;;;;;;4937807;29;20554;-86
2021/12/14 04:01:31;;;;;;;40.33;29.88;;;7.90;99.90;;;;;;4937888;29;20054;-86
2021/12/14 04:04:10;;;;;;;41.00;29.73;;;7.90;99.90;;;;;;4969590;28;20406;-86
2021/12/14 04:06:38;;;;;;;40.63;29.30;;;7.90;99.90;;;;;;4969396;28;20138;-86
2021/12/14 04:09:07;;;;;;;39.88;29.73;;;7.90;99.90;;;;;;4934353;29;20039;-86
2021/12/14 04:11:33;;;;;;;40.53;30.58;;;7.90;99.90;;;;;;4932974;29;20111;-86
2021/12/14 04:13:59;;;;;;;42.08;29.98;;;7.90;99.90;;;;;;4934313;29;20051;-86
2021/12/14 04:16:25;;;;;;;44.60;31.00;;;7.90;99.90;;;;;;4934451;29;20055;-86
2021/12/14 04:18:52;;;;;;;43.92;32.03;;;7.90;99.90;;;;;;4934603;29;20413;-86
2021/12/14 04:21:19;;;;;;;43.55;31.88;;;7.90;99.90;;;;;;4934353;29;20035;-86
2021/12/14 04:23:48;;;;;;;45.58;32.45;;;7.90;99.90;;;;;;4934704;29;20111;-86
2021/12/14 04:26:15;;;;;;;43.95;31.70;;;7.90;99.90;;;;;;4933386;29;20118;-86
2021/12/14 04:28:47;;;;;;;45.78;32.50;;;7.90;99.90;;;;;;4934144;29;20054;-86
2021/12/14 04:31:14;;;;;;;46.65;32.90;;;7.90;99.90;;;;;;4934184;29;20106;-86
2021/12/14 04:33:43;;;;;;;43.65;31.73;;;7.80;99.90;;;;;;4934232;29;20039;-86
2021/12/14 04:36:12;;;;;;;46.38;32.28;;;7.80;99.90;;;;;;4935349;28;20046;-86
2021/12/14 04:38:48;;;;;;;44.80;31.58;;;7.80;99.90;;;;;;4988873;28;20042;-86
2021/12/14 04:52:31;;;;;;;48.80;34.55;;;7.60;99.90;;;;;;4939729;29;20047;-86
2021/12/14 04:55:01;;;;;;;51.53;35.33;;;7.60;99.90;;;;;;4953115;29;20054;-86
2021/12/14 04:57:43;;;;;;;50.15;35.05;;;7.50;99.90;;;;;;4952199;29;20043;-86
2021/12/14 05:00:21;;;;;;;51.80;36.22;;;7.50;99.90;;;;;;4953209;29;20510;-86
2021/12/14 05:02:48;;;;;;;52.60;35.67;;;7.50;99.90;;;;;;4953257;29;20133;-86
2021/12/14 05:05:25;;;;;;;51.08;36.00;;;7.40;99.90;;;;;;4936829;29;20059;-86
2021/12/14 05:10:51;;;;;;;55.33;37.08;;;7.40;99.90;;;;;;4952465;29;20562;-86
2021/12/14 05:13:26;;;;;;;58.05;38.30;;;7.40;99.90;;;;;;4953109;29;20126;-86
2021/12/14 05:15:52;;;;;;;59.45;40.42;;;7.50;99.90;;;;;;4952939;29;20047;-86
2021/12/14 05:18:18;;;;;;;53.92;37.50;;;7.50;99.90;;;;;;4953296;29;20047;-86
2021/12/14 05:20:47;;;;;;;56.45;39.83;;;7.50;99.90;;;;;;4952960;28;20039;-86
2021/12/14 05:23:20;;;;;;;55.85;37.65;;;7.50;99.90;;;;;;4969010;28;20051;-86
2021/12/14 05:25:46;;;;;;;59.38;39.30;;;7.60;99.90;;;;;;4954945;29;20081;-86
2021/12/14 05:28:15;;;;;;;59.00;39.38;;;7.50;99.90;;;;;;4972354;28;20098;-86
2021/12/14 05:30:43;;;;;;;58.10;38.42;;;7.60;99.90;;;;;;4956367;29;20426;-86
2021/12/14 05:33:24;;;;;;;55.00;38.05;;;7.60;99.90;;;;;;4972375;28;20082;-86
2021/12/14 05:35:52;;;;;;;53.80;37.47;;;7.60;99.90;;;;;;4955793;29;20131;-86
2021/12/14 05:38:26;;;;;;;58.83;40.78;;;7.60;99.90;;;;;;4972588;28;20082;-86
2021/12/14 05:43:30;;;;;;;61.55;41.17;;;7.70;99.90;;;;;;4956353;29;20078;-86
2021/12/14 05:46:00;;;;;;;58.92;40.05;;;7.60;99.90;;;;;;4971987;28;20043;-86
2021/12/14 05:48:33;;;;;;;55.15;38.80;;;7.60;99.90;;;;;;4972341;28;20471;-86
2021/12/14 05:51:06;;;;;;;56.05;39.33;;;7.70;99.90;;;;;;4971964;28;20599;-86
2021/12/14 05:53:35;;;;;;;58.35;40.10;;;7.70;99.90;;;;;;4971944;28;20094;-86
2021/12/14 05:56:11;;;;;;;56.78;39.78;;;7.70;99.90;;;;;;4971041;28;20418;-86
2021/12/14 05:58:37;;;;;;;57.65;39.28;;;7.70;99.90;;;;;;4972255;28;20078;-86
2021/12/14 06:01:11;;;;;;;59.10;40.80;;;7.70;99.90;;;;;;4939810;29;20046;-86
2021/12/14 06:03:41;;;;;;;60.30;42.30;;;7.80;99.90;;;;;;4974276;28;20098;-86
2021/12/14 06:06:17;;;;;;;61.92;42.85;;;7.80;99.90;;;;;;4977988;28;20046;-86
2021/12/14 06:08:43;;;;;;;60.45;41.70;;;7.80;99.90;;;;;;4994486;28;20038;-86
2021/12/14 06:11:18;;;;;;;69.28;44.80;;;7.80;99.90;;;;;;4977079;28;20045;-86
2021/12/14 06:13:45;;;;;;;67.20;44.08;;;7.80;99.90;;;;;;4994398;28;20494;-86
2021/12/14 06:16:30;;;;;;;64.38;42.90;;;7.80;99.90;;;;;;4993952;28;20474;-86
2021/12/14 06:19:30;;;;;;;67.70;43.33;;;7.80;99.90;;;;;;4994111;28;20038;-86
2021/12/14 06:22:07;;;;;;;67.18;44.33;;;7.80;99.90;;;;;;4946473;28;20050;-86
2021/12/14 06:24:36;;;;;;;67.35;43.25;;;7.80;99.90;;;;;;4993961;28;20069;-86
2021/12/14 06:27:10;;;;;;;68.82;45.53;;;7.80;99.90;;;;;;4976567;28;20045;-86
2021/12/14 06:30:16;;;;;;;67.68;44.63;;;7.80;99.90;;;;;;4977544;28;20054;-86
2021/12/14 06:32:52;;;;;;;67.07;43.65;;;7.70;99.90;;;;;;4961553;28;20049;-86
2021/12/14 06:35:23;;;;;;;73.85;46.72;;;7.80;99.90;;;;;;4977083;28;20561;-86
2021/12/14 06:40:51;;;;;;;79.88;48.63;;;7.80;99.90;;;;;;4976644;28;20110;-86
2021/12/14 06:43:28;;;;;;;78.63;48.25;;;7.70;99.90;;;;;;4977818;28;20394;-86
2021/12/14 06:45:58;;;;;;;78.13;48.90;;;7.70;99.90;;;;;;4977614;28;20393;-86
2021/12/14 06:48:30;;;;;;;79.70;49.25;;;7.70;99.90;;;;;;4961533;28;20105;-86
2021/12/14 06:51:08;;;;;;;70.00;45.05;;;7.70;99.90;;;;;;4977164;28;20073;-86
2021/12/14 06:53:36;;;;;;;84.63;50.55;;;7.80;99.90;;;;;;4977403;28;20112;-86
2021/12/14 06:56:05;;;;;;;79.03;50.28;;;7.80;99.90;;;;;;4976340;28;20042;-86
2021/12/14 06:58:37;;;;;;;79.35;48.97;;;7.80;99.90;;;;;;4977272;28;20034;-86
2021/12/14 07:01:20;;;;;;;82.55;51.22;;;7.80;99.90;;;;;;4961054;28;20078;-86
2021/12/14 07:03:51;;;;;;;83.13;48.70;;;7.80;99.90;;;;;;4960864;28;20042;-86
2021/12/14 07:06:27;;;;;;;97.22;52.92;;;7.80;99.90;;;;;;4976742;28;20050;-86
2021/12/14 07:08:56;;;;;;;93.10;53.22;;;7.80;99.90;;;;;;4960962;28;20042;-86
2021/12/14 07:11:24;;;;;;;91.03;50.72;;;7.70;99.90;;;;;;4976093;28;20042;-86
2021/12/14 07:13:52;;;;;;;90.82;52.33;;;7.70;99.90;;;;;;4977049;28;20102;-86
2021/12/14 07:16:31;;;;;;;92.30;53.33;;;7.80;99.90;;;;;;4976544;28;20105;-86
2021/12/14 07:19:01;;;;;;;94.28;53.40;;;7.70;99.90;;;;;;4993051;28;20043;-86
2021/12/14 07:21:45;;;;;;;91.57;54.42;;;7.80;99.90;;;;;;4960470;28;20097;-86
2021/12/14 07:24:23;;;;;;;104.35;56.72;;;7.80;99.90;;;;;;4960660;28;20044;-86
2021/12/14 07:27:11;;;;;;;100.45;55.97;;;7.80;99.90;;;;;;4991979;28;20096;-86
2021/12/14 07:29:37;;;;;;;97.90;54.75;;;7.80;99.90;;;;;;4992944;28;20073;-86
2021/12/14 07:32:03;;;;;;;102.40;56.13;;;7.80;99.90;;;;;;4989700;28;20089;-85
2021/12/14 07:34:29;;;;;;;94.45;53.58;;;7.80;99.90;;;;;;4961477;28;20046;-86
2021/12/14 07:36:55;;;;;;;94.03;53.22;;;7.80;99.90;;;;;;4960303;28;20042;-87
2021/12/14 07:39:21;;;;;;;101.00;56.70;;;7.80;99.90;;;;;;4976229;28;20035;-87
2021/12/14 07:41:50;;;;;;;97.15;55.42;;;7.80;99.90;;;;;;4958641;28;20038;-87
2021/12/14 07:44:16;;;;;;;107.47;57.63;;;7.80;99.90;;;;;;4992736;28;20034;-87
2021/12/14 07:46:58;;;;;;;90.57;52.90;;;7.80;99.90;;;;;;4990872;28;20383;-87
2021/12/14 07:49:25;;;;;;;100.38;56.22;;;7.80;99.90;;;;;;4976062;28;20038;-87
2021/12/14 07:52:02;;;;;;;100.43;56.28;;;7.80;99.90;;;;;;4992646;28;20253;-88
2021/12/14 07:54:32;;;;;;;100.10;56.05;;;7.90;99.90;;;;;;4992682;28;20043;-89
2021/12/14 07:56:59;;;;;;;104.25;57.42;;;7.80;99.90;;;;;;4991502;28;20046;-86
2021/12/14 07:59:45;;;;;;;100.78;56.88;;;7.80;99.90;;;;;;4992473;28;20034;-86
2021/12/14 08:02:17;;;;;;;99.22;57.42;;;7.90;99.90;;;;;;4976664;28;20030;-85
2021/12/14 08:04:54;;;;;;;97.32;55.70;;;7.90;99.90;;;;;;4992247;28;20054;-85
2021/12/14 08:07:29;;;;;;;106.63;58.13;;;7.90;99.90;;;;;;4975649;28;20085;-85
2021/12/14 08:10:07;;;;;;;99.05;56.50;;;7.80;99.90;;;;;;4992282;28;20044;-85
2021/12/14 08:12:36;;;;;;;98.05;56.97;;;7.90;99.90;;;;;;4961536;28;20051;-86
2021/12/14 08:15:08;;;;;;;102.88;57.72;;;7.90;99.90;;;;;;4974508;28;20038;-88
2021/12/14 08:17:36;;;;;;;99.30;56.00;;;7.90;99.90;;;;;;4991269;28;20104;-88
2021/12/14 08:20:05;;;;;;;101.57;56.85;;;7.90;99.90;;;;;;4975897;28;20038;-88
2021/12/14 08:22:34;;;;;;;99.18;56.00;;;8.00;99.90;;;;;;4976434;28;20394;-88
2021/12/14 08:25:00;;;;;;;99.18;57.35;;;8.00;99.90;;;;;;4991999;28;20092;-88
2021/12/14 08:27:28;;;;;;;103.70;58.38;;;8.00;99.90;;;;;;4987986;28;20038;-86
2021/12/14 08:29:58;;;;;;;98.32;55.63;;;8.00;99.90;;;;;;4957934;28;20479;-87
2021/12/14 08:32:31;;;;;;;96.78;55.78;;;8.10;99.90;;;;;;4970658;28;20089;-87
2021/12/14 08:35:00;;;;;;;121.38;62.25;;;8.00;99.90;;;;;;4975305;28;20042;-87
2021/12/14 08:37:36;;;;;;;111.72;59.67;;;8.00;99.90;;;;;;4975592;28;20502;-86
2021/12/14 08:40:11;;;;;;;128.70;64.05;;;8.00;99.90;;;;;;4975802;28;20034;-87
2021/12/14 08:42:52;;;;;;;134.95;64.97;;;8.00;99.90;;;;;;4959767;28;20165;-87
2021/12/14 08:45:26;;;;;;;108.32;58.80;;;8.10;99.90;;;;;;4959563;28;20034;-87
2021/12/14 08:47:57;;;;;;;101.63;56.42;;;8.10;99.90;;;;;;4976103;28;20626;-87
2021/12/14 08:50:24;;;;;;;122.40;62.00;;;8.00;99.90;;;;;;4992287;28;20482;-87
2021/12/14 08:52:52;;;;;;;127.38;62.92;;;8.10;99.90;;;;;;4959047;28;20404;-87
2021/12/14 08:55:19;;;;;;;114.63;60.95;;;8.10;99.90;;;;;;4974937;28;20045;-87
2021/12/14 08:57:45;;;;;;;119.50;61.05;;;8.10;99.90;;;;;;4975677;28;20073;-87
2021/12/14 09:00:22;;;;;;;117.65;61.88;;;8.10;99.90;;;;;;4963178;28;20042;-85
2021/12/14 09:02:52;;;;;;;111.78;59.55;;;8.10;99.90;;;;;;4995560;28;20042;-86
2021/12/14 09:05:46;;;;;;;105.63;59.05;;;8.20;99.90;;;;;;4962878;28;20050;-86
2021/12/14 09:08:13;;;;;;;115.22;60.13;;;8.20;99.90;;;;;;4994826;28;20397;-86
2021/12/14 09:10:42;;;;;;;120.32;62.53;;;8.20;99.90;;;;;;4978579;28;20042;-85
2021/12/14 09:13:11;;;;;;;111.35;59.03;;;8.20;99.90;;;;;;4979186;28;20038;-86
2021/12/14 09:16:01;;;;;;;112.05;59.33;;;8.20;99.90;;;;;;4978990;28;20042;-86
2021/12/14 09:18:33;;;;;;;119.97;61.70;;;8.20;99.90;;;;;;4968467;28;20035;-86
2021/12/14 09:21:04;;;;;;;108.20;59.88;;;8.20;99.90;;;;;;4975087;28;20045;-86
2021/12/14 09:23:35;;;;;;;113.35;60.70;;;8.20;99.90;;;;;;4979340;28;20491;-86
2021/12/14 09:26:03;;;;;;;112.05;61.75;;;8.20;99.90;;;;;;4976517;28;20502;-86
2021/12/14 09:28:30;;;;;;;120.38;62.75;;;8.20;99.90;;;;;;4978221;28;20046;-86
2021/12/14 09:31:00;;;;;;;109.05;60.30;;;8.20;99.90;;;;;;4963547;28;20053;-86
2021/12/14 09:33:29;;;;;;;110.75;59.33;;;8.20;99.90;;;;;;4974408;28;20098;-86
2021/12/14 09:35:57;;;;;;;104.80;59.03;;;8.30;99.90;;;;;;4976745;28;20130;-86
2021/12/14 09:38:32;;;;;;;115.30;61.85;;;8.20;99.90;;;;;;4973789;28;20042;-86
2021/12/14 09:41:05;;;;;;;103.60;58.15;;;8.30;99.90;;;;;;4978382;28;20117;-86
2021/12/14 09:43:32;;;;;;;115.15;61.85;;;8.30;99.90;;;;;;4972566;28;20375;-86
2021/12/14 09:45:59;;;;;;;108.03;58.35;;;8.30;99.90;;;;;;4983769;28;20042;-87
2021/12/14 09:48:34;;;;;;;104.05;58.70;;;8.30;99.90;;;;;;4946620;28;20126;-86
2021/12/14 09:51:07;;;;;;;99.82;55.92;;;8.30;99.90;;;;;;4984912;28;20750;-86
2021/12/14 09:53:35;;;;;;;97.72;58.60;;;8.30;99.90;;;;;;4975214;28;20402;-85
2021/12/14 09:56:02;;;;;;;98.10;58.15;;;8.40;99.90;;;;;;4985108;28;20114;-87
2021/12/14 09:58:34;;;;;;;95.82;57.33;;;8.40;99.90;;;;;;4961101;28;20109;-86
2021/12/14 10:01:10;;;;;;;94.22;55.53;;;8.40;99.90;;;;;;4989841;28;20038;-85
2021/12/14 10:03:37;;;;;;;100.53;57.45;;;8.40;99.90;;;;;;4983920;28;20038;-86
2021/12/14 10:06:07;;;;;;;97.00;58.88;;;8.50;99.90;;;;;;4989038;28;20050;-86
2021/12/14 10:08:38;;;;;;;91.28;54.75;;;8.50;99.90;;;;;;4976266;28;20077;-86
2021/12/14 10:11:25;;;;;;;90.88;55.97;;;8.50;99.90;;;;;;4974943;28;20493;-86
2021/12/14 10:13:55;;;;;;;96.50;58.13;;;8.50;99.90;;;;;;4971170;28;20089;-87
2021/12/14 10:16:21;;;;;;;95.00;56.38;;;8.50;99.90;;;;;;4963809;28;20096;-87
2021/12/14 10:18:53;;;;;;;92.68;57.25;;;8.60;99.90;;;;;;4970254;28;20031;-87
2021/12/14 10:21:26;;;;;;;90.65;55.95;;;8.60;99.90;;;;;;4977708;28;20038;-87
2021/12/14 10:23:52;;;;;;;90.75;55.92;;;8.60;99.90;;;;;;4973893;28;20030;-87
2021/12/14 10:26:20;;;;;;;92.63;57.78;;;8.60;99.90;;;;;;4945572;28;20042;-87
2021/12/14 10:28:50;;;;;;;100.18;58.80;;;8.60;99.90;;;;;;4974104;28;20049;-87
2021/12/14 10:31:35;;;;;;;94.30;57.60;;;8.60;99.90;;;;;;4944595;28;20054;-87
2021/12/14 10:34:05;;;;;;;89.53;55.58;;;8.60;99.90;;;;;;4971717;28;20048;-87
2021/12/14 10:36:37;;;;;;;94.38;55.20;;;8.60;99.90;;;;;;4966047;28;20039;-87
2021/12/14 10:44:32;;;;;;;94.25;57.20;;;8.60;99.90;;;;;;4974348;28;20494;-87
2021/12/14 10:46:59;;;;;;;101.65;59.75;;;8.50;99.90;;;;;;4966318;28;20097;-87
2021/12/14 10:49:27;;;;;;;92.88;55.80;;;8.60;99.90;;;;;;4973218;28;20034;-87
2021/12/14 10:51:59;;;;;;;95.53;56.83;;;8.60;99.90;;;;;;4989793;28;20121;-87
2021/12/14 10:54:26;;;;;;;90.93;55.20;;;8.60;99.90;;;;;;4975955;28;20038;-87
2021/12/14 10:56:59;;;;;;;95.93;56.05;;;8.60;99.90;;;;;;4941553;28;20046;-87
2021/12/14 10:59:29;;;;;;;96.93;57.42;;;8.60;99.90;;;;;;4975231;28;20052;-87
2021/12/14 11:01:56;;;;;;;87.03;53.92;;;8.60;99.90;;;;;;4960065;28;20283;-87
2021/12/14 11:04:37;;;;;;;94.93;56.35;;;8.60;99.90;;;;;;4967315;28;20050;-87
2021/12/14 11:07:16;;;;;;;91.03;54.28;;;8.70;99.90;;;;;;4987443;28;20058;-87
2021/12/14 11:09:45;;;;;;;87.95;53.67;;;8.70;99.90;;;;;;4964063;28;20121;-88
2021/12/14 11:12:22;;;;;;;87.05;54.83;;;8.60;99.90;;;;;;4962823;28;20046;-87
2021/12/14 11:14:56;;;;;;;89.32;55.28;;;8.70;99.90;;;;;;4973907;28;20046;-87
2021/12/14 11:20:18;;;;;;;88.35;53.72;;;8.70;99.90;;;;;;4960798;28;20051;-87
2021/12/14 11:22:56;;;;;;;93.82;54.90;;;8.80;99.90;;;;;;4963756;28;20034;-88
2021/12/14 11:25:26;;;;;;;112.38;58.42;;;8.80;99.90;;;;;;4972584;28;20076;-87
2021/12/14 11:28:06;;;;;;;117.78;59.85;;;8.80;99.90;;;;;;4989495;28;20050;-87
2021/12/14 11:30:50;;;;;;;104.15;56.35;;;8.70;99.90;;;;;;4984169;28;20559;-87
2021/12/14 11:33:19;;;;;;;121.43;60.60;;;8.80;99.90;;;;;;4966085;28;20068;-87
2021/12/14 11:36:06;;;;;;;99.10;57.33;;;8.80;99.90;;;;;;4974068;28;20596;-88
2021/12/14 11:38:48;;;;;;;104.57;56.55;;;8.80;99.90;;;;;;4971393;28;20486;-87
2021/12/14 11:41:22;;;;;;;100.47;55.40;;;8.80;99.90;;;;;;4971985;28;20132;-87
2021/12/14 11:44:04;;;;;;;98.47;54.35;;;8.80;99.90;;;;;;4973062;28;20073;-90
2021/12/14 11:46:31;;;;;;;91.70;50.92;;;8.80;99.90;;;;;;4956097;28;20046;-88
2021/12/14 11:49:00;;;;;;;120.00;58.42;;;8.80;99.90;;;;;;4965643;28;20458;-88
2021/12/14 11:51:29;;;;;;;112.22;56.90;;;8.80;99.90;;;;;;4974633;28;20050;-87
2021/12/14 11:53:56;;;;;;;106.65;55.83;;;8.80;99.90;;;;;;4971921;28;20046;-87
2021/12/14 11:56:26;;;;;;;101.78;55.03;;;8.80;99.90;;;;;;4973303;28;20057;-87
2021/12/14 11:59:01;;;;;;;105.90;55.83;;;8.80;99.90;;;;;;4980979;28;20375;-87
2021/12/14 12:01:29;;;;;;;108.22;57.33;;;8.80;99.90;;;;;;4983715;28;20046;-89
2021/12/14 12:04:02;;;;;;;102.15;55.63;;;8.80;99.90;;;;;;4966666;28;20069;-89
2021/12/14 12:09:32;;;;;;;117.85;57.88;;;8.80;99.90;;;;;;4973067;28;20399;-86
2021/12/14 12:12:04;;;;;;;104.63;53.35;;;8.80;99.90;;;;;;4970877;28;20173;-85
2021/12/14 12:14:50;;;;;;;;;;;8.80;99.90;;;;;;4957700;28;20125;-86
2021/12/14 12:17:19;;;;;;;102.13;52.92;;;8.80;99.90;;;;;;4972415;28;20356;-86
2021/12/14 12:20:06;;;;;;;101.85;53.67;;;8.80;99.90;;;;;;4955920;28;20035;-86
2021/12/14 12:22:37;;;;;;;100.40;52.85;;;8.80;99.90;;;;;;4971627;28;20081;-86
2021/12/14 12:25:07;;;;;;;87.68;50.00;;;8.80;99.90;;;;;;4987903;28;20117;-86
2021/12/14 12:27:40;;;;;;;92.70;50.85;;;8.80;99.90;;;;;;4968331;28;20056;-86
2021/12/14 12:30:35;;;;;;;96.57;51.78;;;8.80;99.90;;;;;;4987855;28;20042;-86
2021/12/14 12:33:18;;;;;;;69.78;40.60;;;8.80;99.90;;;;;;4974981;28;20050;-86
2021/12/14 12:35:55;;;;;;;98.85;52.70;;;8.90;99.90;;;;;;4970165;28;20050;-86
2021/12/14 12:38:48;;;;;;;105.55;53.72;;;8.80;99.90;;;;;;4970786;28;20402;-86
2021/12/14 12:41:35;;;;;;;93.25;49.95;;;8.80;99.90;;;;;;4975870;28;20045;-86
2021/12/14 12:44:30;;;;;;;87.32;47.33;;;8.80;99.90;;;;;;4963968;28;20074;-86
2021/12/14 12:47:25;;;;;;;81.22;45.75;;;8.80;99.90;;;;;;4978215;28;20789;-86
2021/12/14 12:49:58;;;;;;;85.53;47.25;;;8.80;99.90;;;;;;4977325;28;20409;-86
2021/12/14 12:52:29;;;;;;;98.53;47.63;;;8.80;99.90;;;;;;4970794;28;20042;-86
2021/12/14 12:55:09;;;;;;;59.55;31.92;;;8.80;99.90;;;;;;4975081;28;20130;-86
2021/12/14 12:57:54;;;;;;;91.93;47.78;;;8.80;99.90;;;;;;4955971;28;20053;-86
2021/12/14 13:00:38;;;;;;;79.60;44.53;;;8.80;99.90;;;;;;4971218;28;20509;-86
2021/12/14 13:03:12;;;;;;;87.18;44.42;;;8.80;99.90;;;;;;4975362;28;20038;-86
2021/12/14 13:06:06;;;;;;;78.80;43.30;;;8.80;99.90;;;;;;4974903;28;20086;-86
2021/12/14 13:08:41;;;;;;;79.93;42.78;;;8.80;99.90;;;;;;4961871;28;20184;-87
2021/12/14 13:11:11;;;;;;;70.22;42.38;;;8.80;99.90;;;;;;4990652;28;20139;-86
2021/12/14 13:13:48;;;;;;;81.25;43.20;;;8.90;99.90;;;;;;4978397;28;20173;-86
2021/12/14 13:16:18;;;;;;;80.57;42.33;;;8.90;99.90;;;;;;4977773;28;20045;-86
2021/12/14 13:18:50;;;;;;;76.03;41.60;;;8.90;99.90;;;;;;4976874;28;20605;-87
2021/12/14 13:21:16;;;;;;;;;;;8.90;99.90;;;;;;4992917;28;20121;-86
2021/12/14 13:24:09;;;;;;;77.00;39.85;;;8.80;99.90;;;;;;4963425;28;20461;-89
2021/12/14 13:26:39;;;;;;;77.43;41.08;;;8.80;99.90;;;;;;4978468;28;20038;-89
2021/12/14 13:29:14;;;;;;;65.50;39.08;;;8.80;99.90;;;;;;4959769;28;20057;-89
2021/12/14 13:32:06;;;;;;;80.25;41.72;;;8.90;99.90;;;;;;4959766;28;20034;-89
2021/12/14 13:34:36;;;;;;;73.10;39.73;;;8.90;99.90;;;;;;4993511;28;20073;-88
2021/12/14 13:37:04;;;;;;;69.65;38.92;;;8.90;99.90;;;;;;4993393;28;20034;-86
2021/12/14 13:39:30;;;;;;;61.70;36.25;;;8.90;99.90;;;;;;4974460;28;20046;-89
2021/12/14 13:41:59;;;;;;;72.53;39.58;;;8.90;99.90;;;;;;4991937;28;20038;-89
2021/12/14 13:44:30;;;;;;;63.75;37.95;;;8.90;99.90;;;;;;4991948;28;20057;-89